Augustowo, Poland

7:41 AM CEST on July 24, 2017 (GMT +0200)
NIESIOLOWICE KASZUBY | | Change Station

Elev 610 ft 54.21 °N, 17.85 °E | Updated 4 seconds ago

Overcast
Overcast
62.4 °F
Feels Like 62.4 °F
N
5.6
Wind Variable Wind from WNW
Gusts 9.2 mph

Today
High -- | Low -- °F
--% Chance of Precip.
Yesterday
High -- | Low -- °F
Precip. -- in
Pressure 29.80 in
Visibility 6.2 miles
Clouds Few 500 ft
Scattered Clouds 800 ft
Dew Point 60 °F
Humidity 92%
Rainfall 0.00 in
Snow Depth Not available.
4:47 AM 9:01 PM
New Moon, 1% visible
METAR EPGD 240530Z 27007KT 9999 FEW005 SCT008 17/17 Q1009
Pressure 29.80 in
Visibility 6.2 miles
Clouds Few 500 ft
Scattered Clouds 800 ft
Dew Point 60 °F
Humidity 92%
Rainfall 0.00 in
Snow Depth Not available.
4:47 AM 9:01 PM
New Moon, 1% visible
METAR EPGD 240530Z 27007KT 9999 FEW005 SCT008 17/17 Q1009

Get Severe Weather Alerts

Thanks for signing up!

Be on the lookout for a verification email in your inbox.

You'll start receiving the daily forecast at 6 AM.

×

10-Day Weather Forecast

×

Almanac

Astronomy

Jul. 24, 2017 Rise Set
Actual Time
Civil Twilight
Nautical Twilight
Astronomical Twilight
Moon
Length of Visible Light
Length of Day
Tomorrow will be .
, % of the Moon is Illuminated

Today's Extremes

Country Highs Country Lows

Community

WunderPhotos

Category 6

Welcome to Category 6. This is the collective home for Weather Underground's featured writeups by Dr. Jeff Masters (right), Bob Henson (left), Chris Burt, and other regular contributors.

Nearby

Air Quality

  Air Quality AQ Index Pollutant
Not available.

Snow Depth

Station Depth Elevation

Earthquake Activity

City Distance Mag. Time & Date
Minimum magnitude displayed is 2.5.

Coastal Water Temperatures

Place Temperature

Stations

Nearby Weather Stations

Station Location Temp. Windchill Dew Point Humidity Wind Precip. Elev Updated Type